createdAt,value
2022-12-28T00:01:32.960Z,6.67
2022-12-28T00:04:06.527Z,6.66
2022-12-28T00:06:37.915Z,6.62
2022-12-28T00:09:04.813Z,6.62
2022-12-28T00:11:31.855Z,6.70
2022-12-28T00:14:00.471Z,6.65
2022-12-28T00:16:39.491Z,6.60
2022-12-28T00:19:14.894Z,6.69
2022-12-28T00:21:42.924Z,6.69
2022-12-28T00:24:18.987Z,6.63
2022-12-28T00:26:48.051Z,6.67
2022-12-28T00:29:15.520Z,6.65
2022-12-28T00:31:45.693Z,6.54
2022-12-28T00:34:12.463Z,6.50
2022-12-28T00:37:08.385Z,6.50
2022-12-28T00:39:27.999Z,6.55
2022-12-28T00:41:57.057Z,6.46
2022-12-28T00:44:23.664Z,6.55
2022-12-28T00:46:50.307Z,6.56
2022-12-28T00:49:19.358Z,6.58
2022-12-28T00:51:45.866Z,6.58
2022-12-28T00:54:12.772Z,6.35
2022-12-28T00:56:42.876Z,6.53
2022-12-28T00:59:14.294Z,6.45
2022-12-28T01:01:40.965Z,6.54
2022-12-28T01:04:07.681Z,6.58
2022-12-28T01:06:34.253Z,6.68
2022-12-28T01:09:00.884Z,6.70
2022-12-28T01:11:29.598Z,6.74
2022-12-28T01:13:59.559Z,6.74
2022-12-28T01:16:29.195Z,6.75
2022-12-28T01:19:01.055Z,6.76
2022-12-28T01:21:30.663Z,6.83
2022-12-28T01:23:59.580Z,6.86
2022-12-28T01:26:33.785Z,6.81
2022-12-28T01:29:03.368Z,6.83
2022-12-28T01:31:30.108Z,6.92
2022-12-28T01:33:56.772Z,6.89
2022-12-28T01:36:25.599Z,6.98
2022-12-28T01:38:57.404Z,7.00
2022-12-28T01:41:27.722Z,7.03
2022-12-28T01:43:54.199Z,7.05
2022-12-28T01:46:23.060Z,7.07
2022-12-28T01:49:15.188Z,7.09
2022-12-28T01:52:19.752Z,7.12
2022-12-28T01:54:56.279Z,7.02
2022-12-28T01:57:30.030Z,7.16
2022-12-28T02:00:11.346Z,7.13
2022-12-28T02:02:39.026Z,7.20
2022-12-28T02:05:06.530Z,7.21
2022-12-28T02:07:43.647Z,7.25
2022-12-28T02:10:44.030Z,7.26
2022-12-28T02:13:00.412Z,7.26
2022-12-28T02:15:27.175Z,7.28
2022-12-28T02:17:53.796Z,7.30
2022-12-28T02:20:20.625Z,7.29
2022-12-28T02:23:07.237Z,7.31
2022-12-28T02:26:03.410Z,7.28
2022-12-28T02:28:51.754Z,7.31
2022-12-28T02:31:24.755Z,7.32
2022-12-28T02:34:03.408Z,7.29
2022-12-28T02:36:39.463Z,7.27
2022-12-28T02:39:11.165Z,7.30
2022-12-28T02:41:41.428Z,7.31
2022-12-28T02:44:08.258Z,7.33
2022-12-28T02:46:53.890Z,7.37
2022-12-28T02:49:40.208Z,7.38
2022-12-28T02:52:31.207Z,7.38
2022-12-28T02:55:44.143Z,7.36
2022-12-28T02:58:25.009Z,7.38
2022-12-28T03:01:30.122Z,7.38
2022-12-28T03:04:18.075Z,7.33
2022-12-28T03:07:29.795Z,7.37
2022-12-28T03:10:18.933Z,7.37
2022-12-28T03:13:01.701Z,7.38
2022-12-28T03:15:34.622Z,7.30
2022-12-28T03:18:35.346Z,7.39
2022-12-28T03:21:28.458Z,7.36
2022-12-28T03:24:14.823Z,7.42
2022-12-28T03:27:05.913Z,7.45
2022-12-28T03:29:57.987Z,7.47
2022-12-28T03:32:24.873Z,7.48
2022-12-28T03:34:51.829Z,7.51
2022-12-28T03:37:27.061Z,7.48
2022-12-28T03:39:58.817Z,7.57
2022-12-28T03:42:48.994Z,7.55
2022-12-28T03:45:46.688Z,7.59
2022-12-28T03:48:17.424Z,7.58
2022-12-28T03:50:47.056Z,7.60
2022-12-28T03:53:14.468Z,7.67
2022-12-28T03:55:41.086Z,7.65
2022-12-28T03:58:09.746Z,7.69
2022-12-28T04:00:36.249Z,7.72
2022-12-28T04:03:05.825Z,7.75
2022-12-28T04:05:32.423Z,7.75
2022-12-28T04:07:59.021Z,7.79
2022-12-28T04:10:25.558Z,7.82
2022-12-28T04:12:57.056Z,7.83
2022-12-28T04:15:23.944Z,7.87
2022-12-28T04:17:50.497Z,7.87
2022-12-28T04:20:17.054Z,7.86
2022-12-28T04:22:44.218Z,7.92
2022-12-28T04:25:10.746Z,7.88
2022-12-28T04:27:37.595Z,7.83
2022-12-28T04:30:05.146Z,7.99
2022-12-28T04:32:33.989Z,8.03
2022-12-28T04:35:02.856Z,7.97
2022-12-28T04:37:31.640Z,8.02
2022-12-28T04:39:58.204Z,8.09
2022-12-28T04:42:25.835Z,8.11
2022-12-28T04:44:52.523Z,8.06
2022-12-28T04:47:19.177Z,8.16
2022-12-28T04:49:50.549Z,8.18
2022-12-28T04:52:17.134Z,8.21
2022-12-28T04:54:46.179Z,8.21
2022-12-28T04:57:13.189Z,8.24
2022-12-28T04:59:40.530Z,8.25
2022-12-28T05:02:10.201Z,8.20
2022-12-28T05:04:36.849Z,8.28
2022-12-28T05:07:03.481Z,8.32
2022-12-28T05:09:30.057Z,8.30
2022-12-28T05:11:56.583Z,8.29
2022-12-28T05:14:23.252Z,8.30
2022-12-28T05:16:52.849Z,8.38
2022-12-28T05:19:19.420Z,8.36
2022-12-28T05:21:45.958Z,8.37
2022-12-28T05:24:12.544Z,8.41
2022-12-28T05:26:39.167Z,8.46
2022-12-28T05:29:05.830Z,8.47
2022-12-28T05:31:32.529Z,8.48
2022-12-28T05:33:59.239Z,8.40
2022-12-28T05:36:27.744Z,8.41
2022-12-28T05:38:55.660Z,8.45
2022-12-28T05:41:25.568Z,8.40
2022-12-28T05:43:52.559Z,8.49
2022-12-28T05:46:21.732Z,8.46
2022-12-28T05:48:48.739Z,8.40
2022-12-28T05:51:18.750Z,8.45
2022-12-28T05:53:45.881Z,8.48
2022-12-28T05:56:14.814Z,8.49
2022-12-28T05:58:45.274Z,8.40
2022-12-28T06:01:18.034Z,8.48
2022-12-28T06:03:46.537Z,8.51
2022-12-28T06:06:15.694Z,8.49
2022-12-28T06:08:43.543Z,8.50
2022-12-28T06:11:13.886Z,8.51
2022-12-28T06:13:41.564Z,8.52
2022-12-28T06:16:35.699Z,8.48
2022-12-28T06:19:10.990Z,8.53
2022-12-28T06:21:39.145Z,8.54
2022-12-28T06:24:06.926Z,8.54
2022-12-28T06:26:35.924Z,8.56
2022-12-28T06:29:03.297Z,8.55
2022-12-28T06:31:35.220Z,8.59
2022-12-28T06:34:03.650Z,8.58
2022-12-28T06:36:41.109Z,8.61
2022-12-28T06:39:10.159Z,8.63
2022-12-28T06:41:37.189Z,8.53
2022-12-28T06:44:08.317Z,8.66
2022-12-28T06:46:34.964Z,8.68
2022-12-28T06:49:01.661Z,8.68
2022-12-28T06:51:36.393Z,8.70
2022-12-28T06:54:08.147Z,8.68
2022-12-28T06:56:35.910Z,8.71
2022-12-28T06:59:04.840Z,8.72
2022-12-28T07:01:34.867Z,8.73
2022-12-28T07:04:03.182Z,8.73
2022-12-28T07:06:33.964Z,8.76
2022-12-28T07:09:06.784Z,8.75
2022-12-28T07:11:37.032Z,8.73
2022-12-28T07:14:04.215Z,8.78
2022-12-28T07:18:58.471Z,8.82
2022-12-28T07:21:31.698Z,8.86
2022-12-28T07:24:00.726Z,8.81
2022-12-28T07:26:30.484Z,8.85
2022-12-28T07:28:59.355Z,8.89
2022-12-28T07:31:31.731Z,8.89
2022-12-28T07:34:03.177Z,8.91
2022-12-28T07:36:31.656Z,8.93
2022-12-28T07:38:58.383Z,8.94
2022-12-28T07:41:29.552Z,8.90
2022-12-28T07:43:56.903Z,8.93
2022-12-28T07:46:26.673Z,8.93
2022-12-28T07:48:53.811Z,8.89
2022-12-28T07:51:29.032Z,8.94
2022-12-28T07:53:59.390Z,9.01
2022-12-28T07:56:27.567Z,8.99
2022-12-28T07:59:02.700Z,9.02
2022-12-28T08:01:33.967Z,9.00
2022-12-28T08:04:03.125Z,9.04
2022-12-28T08:06:34.820Z,9.07
2022-12-28T08:09:01.983Z,9.10
2022-12-28T08:11:31.737Z,9.04
2022-12-28T08:13:59.797Z,9.11
2022-12-28T08:16:28.780Z,9.14
2022-12-28T08:18:55.648Z,9.07
2022-12-28T08:21:29.917Z,9.14
2022-12-28T08:24:01.483Z,9.12
2022-12-28T08:26:40.359Z,9.12
2022-12-28T08:29:17.448Z,9.13
2022-12-28T08:31:44.978Z,9.17
2022-12-28T08:34:27.290Z,9.17
2022-12-28T08:36:55.704Z,9.17
2022-12-28T08:39:22.260Z,9.18
2022-12-28T08:41:51.423Z,9.18
2022-12-28T08:44:20.187Z,9.12
2022-12-28T08:46:49.282Z,9.15
2022-12-28T08:49:16.806Z,9.22
2022-12-28T08:51:43.497Z,9.24
2022-12-28T08:54:12.259Z,9.24
2022-12-28T08:56:40.932Z,9.19
2022-12-28T08:59:07.861Z,9.30
2022-12-28T09:01:43.808Z,9.34
2022-12-28T09:04:20.939Z,9.37
2022-12-28T09:06:48.163Z,9.38
2022-12-28T09:09:17.411Z,9.36
2022-12-28T09:11:45.262Z,9.43
2022-12-28T09:14:24.808Z,9.45
2022-12-28T09:16:53.835Z,9.45
2022-12-28T09:19:21.086Z,9.43
2022-12-28T09:21:49.574Z,9.47
2022-12-28T09:24:18.682Z,9.46
2022-12-28T09:26:45.238Z,9.48
2022-12-28T09:29:13.815Z,9.49
2022-12-28T09:31:41.633Z,9.50
2022-12-28T09:36:59.831Z,9.53
2022-12-28T09:39:26.578Z,9.52
2022-12-28T09:42:03.348Z,9.56
2022-12-28T09:44:36.024Z,9.56
2022-12-28T09:47:40.444Z,9.56
2022-12-28T09:50:13.091Z,9.57
2022-12-28T09:52:52.652Z,9.54
2022-12-28T09:55:22.926Z,9.62
2022-12-28T09:57:53.298Z,9.64
2022-12-28T10:00:25.881Z,9.63
2022-12-28T10:03:01.147Z,9.65
2022-12-28T10:05:29.492Z,9.70
2022-12-28T10:08:04.953Z,9.69
2022-12-28T10:10:32.092Z,9.76
2022-12-28T10:13:37.428Z,9.70
2022-12-28T10:16:05.446Z,9.72
2022-12-28T10:18:37.567Z,9.81
2022-12-28T10:21:06.471Z,9.79
2022-12-28T10:23:41.228Z,9.84
2022-12-28T10:26:21.787Z,9.84
2022-12-28T10:28:51.712Z,9.82
2022-12-28T10:31:34.742Z,9.85
2022-12-28T10:34:01.446Z,9.86
2022-12-28T10:36:34.246Z,9.85
2022-12-28T10:39:02.059Z,9.83
2022-12-28T10:41:40.826Z,9.88
2022-12-28T10:44:40.168Z,9.87
2022-12-28T10:47:22.829Z,9.79
2022-12-28T10:52:39.440Z,9.80
2022-12-28T10:55:27.861Z,9.87
2022-12-28T10:58:30.368Z,9.80
2022-12-28T11:00:57.393Z,9.86
2022-12-28T11:03:26.874Z,9.83
2022-12-28T11:06:13.525Z,9.85
2022-12-28T11:08:41.387Z,9.82
2022-12-28T11:11:18.110Z,9.85
2022-12-28T11:13:53.374Z,9.78
2022-12-28T11:16:20.007Z,9.83
2022-12-28T11:18:47.064Z,9.89
2022-12-28T11:21:20.086Z,9.84
2022-12-28T11:23:52.956Z,9.88
2022-12-28T11:26:20.970Z,9.79
2022-12-28T11:28:54.649Z,9.91
2022-12-28T11:31:30.629Z,9.87
2022-12-28T11:34:03.476Z,9.92
2022-12-28T11:36:34.579Z,9.95
2022-12-28T11:39:26.671Z,9.88
2022-12-28T11:42:19.515Z,9.95
2022-12-28T11:44:40.995Z,9.99
2022-12-28T11:47:16.672Z,10.01
2022-12-28T11:49:45.010Z,9.96
2022-12-28T11:52:17.796Z,9.98
2022-12-28T11:54:51.642Z,9.99
2022-12-28T11:57:40.920Z,9.99
2022-12-28T12:00:22.865Z,9.99
2022-12-28T12:02:58.339Z,9.88
2022-12-28T12:05:37.345Z,9.98
2022-12-28T12:08:12.541Z,9.98
2022-12-28T12:10:41.818Z,9.91
2022-12-28T12:13:23.813Z,9.98
2022-12-28T12:15:55.243Z,10.00
2022-12-28T12:18:30.092Z,9.93
2022-12-28T12:21:13.389Z,9.99
2022-12-28T12:23:45.312Z,10.02
2022-12-28T12:26:59.292Z,10.00
2022-12-28T12:29:38.307Z,9.96
2022-12-28T12:32:18.206Z,9.96
2022-12-28T12:34:53.703Z,9.94
2022-12-28T12:37:35.816Z,9.95
2022-12-28T12:40:02.309Z,9.96
2022-12-28T12:42:56.384Z,9.98
2022-12-28T12:45:47.800Z,9.97
2022-12-28T12:48:52.056Z,10.02
2022-12-28T12:51:18.542Z,10.02
2022-12-28T12:53:48.965Z,10.03
2022-12-28T12:56:37.260Z,10.06
2022-12-28T12:59:04.108Z,10.06
2022-12-28T13:01:46.068Z,10.02
2022-12-28T13:04:22.039Z,10.03
2022-12-28T13:06:52.797Z,9.99
2022-12-28T13:09:28.218Z,10.00
2022-12-28T13:11:55.407Z,10.06
2022-12-28T13:14:24.845Z,10.03
2022-12-28T13:16:59.713Z,10.01
2022-12-28T13:19:28.969Z,10.00
2022-12-28T13:21:59.479Z,10.05
2022-12-28T13:24:30.446Z,10.05
2022-12-28T13:27:00.209Z,10.01
2022-12-28T13:29:53.978Z,10.04
2022-12-28T13:32:49.645Z,10.02
2022-12-28T13:35:21.786Z,10.03
2022-12-28T13:38:16.285Z,9.99
2022-12-28T13:40:53.720Z,10.07
2022-12-28T13:44:01.710Z,10.07
2022-12-28T13:46:32.101Z,10.08
2022-12-28T13:48:59.564Z,10.07
2022-12-28T13:51:29.016Z,10.08
2022-12-28T13:53:59.741Z,10.09
2022-12-28T13:56:28.321Z,10.06
2022-12-28T13:59:04.740Z,10.08
2022-12-28T14:01:37.685Z,10.11
2022-12-28T14:04:50.425Z,10.04
2022-12-28T14:06:54.819Z,10.16
2022-12-28T14:09:24.330Z,10.17
2022-12-28T14:11:51.538Z,10.19
2022-12-28T14:14:18.697Z,10.15
2022-12-28T14:16:45.799Z,10.24
2022-12-28T14:19:13.001Z,10.27
2022-12-28T14:21:46.112Z,10.23
2022-12-28T14:24:15.414Z,10.30
2022-12-28T14:26:51.074Z,10.28
2022-12-28T14:29:34.746Z,10.33
2022-12-28T14:32:06.746Z,10.27
2022-12-28T14:34:39.080Z,10.34
2022-12-28T14:37:09.870Z,10.28
2022-12-28T14:39:45.492Z,10.33
2022-12-28T14:42:26.072Z,10.34
2022-12-28T14:44:56.204Z,10.34
2022-12-28T14:47:53.938Z,10.31
2022-12-28T14:50:31.676Z,10.28
2022-12-28T14:53:08.369Z,10.22
2022-12-28T14:55:43.123Z,10.21
2022-12-28T14:58:21.634Z,10.22
2022-12-28T15:01:14.328Z,10.15
2022-12-28T15:03:54.547Z,10.20
2022-12-28T15:06:22.501Z,10.19
2022-12-28T15:08:58.830Z,10.12
2022-12-28T15:11:28.262Z,10.12
2022-12-28T15:13:54.954Z,10.11
2022-12-28T15:16:25.319Z,10.12
2022-12-28T15:18:52.976Z,10.13
2022-12-28T15:21:22.516Z,10.17
2022-12-28T15:23:55.288Z,10.16
2022-12-28T15:26:28.160Z,10.15
2022-12-28T15:28:54.742Z,10.07
2022-12-28T15:31:24.092Z,10.12
2022-12-28T15:33:50.644Z,10.09
2022-12-28T15:36:20.396Z,10.14
2022-12-28T15:38:50.284Z,10.07
2022-12-28T15:41:37.985Z,10.11
2022-12-28T15:44:04.954Z,10.12
2022-12-28T15:46:34.309Z,10.14
2022-12-28T15:49:08.015Z,10.13
2022-12-28T15:51:34.611Z,10.09
2022-12-28T15:54:01.247Z,10.12
2022-12-28T15:56:33.115Z,10.11
2022-12-28T15:59:01.506Z,10.10
2022-12-28T16:01:32.494Z,10.09
2022-12-28T16:04:01.457Z,10.09
2022-12-28T16:06:30.088Z,10.07
2022-12-28T16:08:58.064Z,9.91
2022-12-28T16:11:25.931Z,10.04
2022-12-28T16:13:54.731Z,10.04
2022-12-28T16:16:28.180Z,9.95
2022-12-28T16:18:57.517Z,9.87
2022-12-28T16:21:26.362Z,9.88
2022-12-28T16:23:53.150Z,9.99
2022-12-28T16:26:20.174Z,9.97
2022-12-28T16:28:47.267Z,9.90
2022-12-28T16:31:31.299Z,9.93
2022-12-28T16:34:02.023Z,9.94
2022-12-28T16:36:30.975Z,9.89
2022-12-28T16:39:03.020Z,9.89
2022-12-28T16:41:36.276Z,9.91
2022-12-28T16:44:15.593Z,9.79
2022-12-28T16:46:42.636Z,9.88
2022-12-28T16:49:11.321Z,9.83
2022-12-28T16:51:39.813Z,9.83
2022-12-28T16:54:12.304Z,9.80
2022-12-28T16:56:39.146Z,9.84
2022-12-28T16:59:07.990Z,9.83
2022-12-28T17:01:34.715Z,9.83
2022-12-28T17:04:04.013Z,9.81
2022-12-28T17:06:34.432Z,9.73
2022-12-28T17:09:02.614Z,9.77
2022-12-28T17:11:29.255Z,9.76
2022-12-28T17:14:08.004Z,9.73
2022-12-28T17:16:35.064Z,9.67
2022-12-28T17:19:02.534Z,9.78
2022-12-28T17:21:29.953Z,9.78
2022-12-28T17:23:56.787Z,9.75
2022-12-28T17:26:24.005Z,9.78
2022-12-28T17:28:53.095Z,9.77
2022-12-28T17:31:22.097Z,9.73
2022-12-28T17:33:54.434Z,9.66
2022-12-28T17:36:22.275Z,9.66
2022-12-28T17:38:49.271Z,9.74
2022-12-28T17:41:19.581Z,9.74
2022-12-28T17:44:07.837Z,9.74
2022-12-28T17:46:40.831Z,9.73
2022-12-28T17:49:12.588Z,9.74
2022-12-28T17:51:44.516Z,9.74
2022-12-28T17:54:12.456Z,9.73
2022-12-28T17:56:41.052Z,9.62
2022-12-28T17:59:11.456Z,9.73
2022-12-28T18:01:38.416Z,9.69
2022-12-28T18:04:05.212Z,9.70
2022-12-28T18:06:31.818Z,9.70
2022-12-28T18:08:58.365Z,9.67
2022-12-28T18:11:25.267Z,9.72
2022-12-28T18:13:52.035Z,9.72
2022-12-28T18:16:22.364Z,9.66
2022-12-28T18:18:49.167Z,9.79
2022-12-28T18:21:21.383Z,9.76
2022-12-28T18:23:50.291Z,9.72
2022-12-28T18:26:22.565Z,9.75
2022-12-28T18:28:49.746Z,9.74
2022-12-28T18:31:16.387Z,9.73
2022-12-28T18:33:45.747Z,9.70
2022-12-28T18:36:17.335Z,9.69
2022-12-28T18:38:45.060Z,9.69
2022-12-28T18:41:14.682Z,9.87
2022-12-28T18:43:41.791Z,9.77
2022-12-28T18:46:09.032Z,9.75
2022-12-28T18:48:38.553Z,9.74
2022-12-28T18:51:11.078Z,9.73
2022-12-28T18:53:38.635Z,9.70
2022-12-28T18:56:15.697Z,9.72
2022-12-28T18:58:43.297Z,9.70
2022-12-28T19:01:40.188Z,9.68
2022-12-28T19:04:07.715Z,9.66
2022-12-28T19:06:34.843Z,9.68
2022-12-28T19:09:05.258Z,9.65
2022-12-28T19:11:31.989Z,9.69
2022-12-28T19:14:02.438Z,9.72
2022-12-28T19:16:31.881Z,9.72
2022-12-28T19:19:00.625Z,9.68
2022-12-28T19:21:32.709Z,9.68
2022-12-28T19:24:06.756Z,9.75
2022-12-28T19:26:34.864Z,9.70
2022-12-28T19:29:06.945Z,9.76
2022-12-28T19:31:34.164Z,9.79
2022-12-28T19:34:01.356Z,9.73
2022-12-28T19:36:34.079Z,9.79
2022-12-28T19:39:05.429Z,9.81
2022-12-28T19:41:48.249Z,9.80
2022-12-28T19:44:20.190Z,9.73
2022-12-28T19:46:48.703Z,9.86
2022-12-28T19:49:15.443Z,9.87
2022-12-28T19:51:44.622Z,9.88
2022-12-28T19:54:13.511Z,9.91
2022-12-28T19:56:40.083Z,9.93
2022-12-28T19:59:07.377Z,9.93
2022-12-28T20:01:38.984Z,9.95
2022-12-28T20:04:12.931Z,9.94
2022-12-28T20:06:43.836Z,9.98
2022-12-28T20:09:10.873Z,9.97
2022-12-28T20:11:37.489Z,10.00
2022-12-28T20:14:05.112Z,10.02
2022-12-28T20:16:36.053Z,10.04
2022-12-28T20:19:10.385Z,10.05
2022-12-28T20:21:38.552Z,10.05
2022-12-28T20:24:05.989Z,10.07
2022-12-28T20:26:35.454Z,10.09
2022-12-28T20:29:03.853Z,10.07
2022-12-28T20:31:31.377Z,10.07
2022-12-28T20:33:58.040Z,10.14
2022-12-28T20:36:27.184Z,10.15
2022-12-28T20:38:55.369Z,10.11
2022-12-28T20:41:43.387Z,10.17
2022-12-28T20:44:16.112Z,10.19
2022-12-28T20:46:44.068Z,10.20
2022-12-28T20:49:15.596Z,10.08
2022-12-28T20:51:42.740Z,10.18
2022-12-28T20:54:10.643Z,10.19
2022-12-28T20:56:38.705Z,10.28
2022-12-28T20:59:06.150Z,10.23
2022-12-28T21:01:34.296Z,10.34
2022-12-28T21:04:01.071Z,10.34
2022-12-28T21:06:27.717Z,10.36
2022-12-28T21:08:54.290Z,10.35
2022-12-28T21:11:20.908Z,10.35
2022-12-28T21:13:47.443Z,10.36
2022-12-28T21:16:15.141Z,10.44
2022-12-28T21:18:41.745Z,10.41
2022-12-28T21:21:15.088Z,10.42
2022-12-28T21:23:42.037Z,10.37
2022-12-28T21:26:14.996Z,10.44
2022-12-28T21:28:44.863Z,10.47
2022-12-28T21:31:14.564Z,10.52
2022-12-28T21:33:41.464Z,10.49
2022-12-28T21:36:12.157Z,10.48
2022-12-28T21:38:40.047Z,10.50
2022-12-28T21:41:15.351Z,10.63
2022-12-28T21:43:41.930Z,10.57
2022-12-28T21:46:16.750Z,10.55
2022-12-28T21:48:43.332Z,10.56
2022-12-28T21:51:31.878Z,10.48
2022-12-28T21:54:14.085Z,10.55
2022-12-28T21:56:43.355Z,10.64
2022-12-28T21:59:13.439Z,10.66
2022-12-28T22:02:00.002Z,10.68
2022-12-28T22:04:45.665Z,10.68
2022-12-28T22:07:15.934Z,10.66
2022-12-28T22:10:01.861Z,10.68
2022-12-28T22:12:34.365Z,10.60
2022-12-28T22:15:35.277Z,10.69
2022-12-28T22:18:04.733Z,10.72
2022-12-28T22:20:33.314Z,10.73
2022-12-28T22:23:01.136Z,10.71
2022-12-28T22:25:29.668Z,10.78
2022-12-28T22:27:59.305Z,10.81
2022-12-28T22:30:26.346Z,10.83
2022-12-28T22:32:53.239Z,10.85
2022-12-28T22:35:24.689Z,10.87
2022-12-28T22:37:51.224Z,10.88
2022-12-28T22:40:18.045Z,10.82
2022-12-28T22:42:47.022Z,10.92
2022-12-28T22:45:19.453Z,10.94
2022-12-28T22:47:47.020Z,10.96
2022-12-28T22:50:18.563Z,10.98
2022-12-28T22:52:46.014Z,11.01
2022-12-28T22:55:12.613Z,11.04
2022-12-28T22:57:41.424Z,11.00
2022-12-28T23:00:14.594Z,11.07
2022-12-28T23:02:41.662Z,11.08
2022-12-28T23:05:08.428Z,11.05
2022-12-28T23:07:36.357Z,11.12
2022-12-28T23:10:04.131Z,11.09
2022-12-28T23:12:30.692Z,11.14
2022-12-28T23:15:15.823Z,11.16
2022-12-28T23:17:45.321Z,11.15
2022-12-28T23:20:31.376Z,11.18
2022-12-28T23:23:16.730Z,11.18
2022-12-28T23:26:01.948Z,11.19
2022-12-28T23:28:28.694Z,11.10
2022-12-28T23:30:56.536Z,11.10
2022-12-28T23:33:25.429Z,11.14
2022-12-28T23:35:52.024Z,11.13
2022-12-28T23:38:20.790Z,11.14
2022-12-28T23:41:07.331Z,11.12
2022-12-28T23:43:34.018Z,11.18
2022-12-28T23:46:04.248Z,11.18
2022-12-28T23:48:30.903Z,11.21
2022-12-28T23:51:08.139Z,11.23
2022-12-28T23:53:35.282Z,11.21
2022-12-28T23:56:04.394Z,11.24
2022-12-28T23:58:31.091Z,11.24
